Etusivu
METAR-TAF:

METAR-TAF

Lentoasemat :

Porterville Municipal Airport

Porterville, Kalifornia, Yhdysvallat

Leveyspiiri: 36-02N, Pituuspiiri: 119-04W, korkeus merenpinnasta: 135 m

Tämänhetkinen sää

Tämä raportti tehtiin 27 minuuttia sitten, kello 03.56 UTC
tyyntä
Lämpötila 13°C
Kosteus 94%
Ilmanpaine 1014 hPa
Näkyvyys: 16.1 km
Muutamia pilviä 8500 ft:n korkeudessa
Hajanaisia pilviä 12000 ft:n korkeudessa

METAR: KPTV 270356Z AUTO 00000KT 10SM FEW085 SCT120 13/12 A2995 RMK AO2 SLP143 T01330117

Aika: 20:23 (04:23 UTC)


TAF: puuttuu

Säähavainnot ja -ennusteet yli 4000 lentoasemalta (METAR- ja TAF-raportit).

Käytössä olevat sääasemat on merkitty karttaan keltaisilla ja punaisilla pisteillä.

Aseta hiiri pisteen päälle nähdäksesi sääaseman nimen.

Klikkaa sitten nähdäksesi säähavainnot ja -ennusteet.

Kartan vaihtaminen: klikkaa mustalla rastilla varustettuja vihreitä pisteitä, niin voit zoomata sisään; viivalla varustettua vihreää pistettä, niin voit zoomata ulos tai vihreitä nuolia, niin pääset viereisille kartoille.


METAR-TAF: